sensor_id;sensor_type;location;lat;lon;timestamp;pressure;altitude;pressure_sealevel;temperature;humidity
8318;BME280;4196;48.926;8.964;2023-12-28T00:01:30;99133.72;;;-0.38;100.00
8318;BME280;4196;48.926;8.964;2023-12-28T00:04:17;99156.88;;;-0.32;100.00
8318;BME280;4196;48.926;8.964;2023-12-28T00:07:03;99162.50;;;-0.39;100.00
8318;BME280;4196;48.926;8.964;2023-12-28T00:09:50;99117.44;;;-0.62;100.00
8318;BME280;4196;48.926;8.964;2023-12-28T00:12:36;99143.28;;;-0.32;100.00
8318;BME280;4196;48.926;8.964;2023-12-28T00:15:23;99118.06;;;-0.47;100.00
8318;BME280;4196;48.926;8.964;2023-12-28T00:18:10;99126.38;;;-0.30;100.00
8318;BME280;4196;48.926;8.964;2023-12-28T00:20:56;99144.66;;;-0.19;100.00
8318;BME280;4196;48.926;8.964;2023-12-28T00:23:43;99175.03;;;-0.22;100.00
8318;BME280;4196;48.926;8.964;2023-12-28T00:26:29;99118.06;;;-0.47;100.00
8318;BME280;4196;48.926;8.964;2023-12-28T00:29:22;99073.66;;;-0.55;100.00
8318;BME280;4196;48.926;8.964;2023-12-28T00:32:09;99163.78;;;-0.08;100.00
8318;BME280;4196;48.926;8.964;2023-12-28T00:34:55;99143.72;;;-0.21;100.00
8318;BME280;4196;48.926;8.964;2023-12-28T00:37:42;99111.50;;;-0.42;100.00
8318;BME280;4196;48.926;8.964;2023-12-28T00:40:30;99133.56;;;-0.41;100.00
8318;BME280;4196;48.926;8.964;2023-12-28T00:43:16;99142.53;;;-0.30;100.00
8318;BME280;4196;48.926;8.964;2023-12-28T00:46:03;99100.19;;;-0.49;100.00
8318;BME280;4196;48.926;8.964;2023-12-28T00:48:49;99167.25;;;-0.06;100.00
8318;BME280;4196;48.926;8.964;2023-12-28T00:51:36;99151.56;;;0.04;100.00
8318;BME280;4196;48.926;8.964;2023-12-28T00:54:23;99133.91;;;-0.12;100.00
8318;BME280;4196;48.926;8.964;2023-12-28T00:57:09;99110.56;;;-0.23;100.00
8318;BME280;4196;48.926;8.964;2023-12-28T00:59:56;99139.06;;;0.10;100.00
8318;BME280;4196;48.926;8.964;2023-12-28T01:02:42;99166.03;;;0.05;100.00
8318;BME280;4196;48.926;8.964;2023-12-28T01:05:34;99122.38;;;-0.25;100.00
8318;BME280;4196;48.926;8.964;2023-12-28T01:08:22;99141.31;;;0.03;100.00
8318;BME280;4196;48.926;8.964;2023-12-28T01:11:11;99121.31;;;0.12;100.00
8318;BME280;4196;48.926;8.964;2023-12-28T01:13:59;99138.50;;;0.17;100.00
8318;BME280;4196;48.926;8.964;2023-12-28T01:16:45;99166.16;;;0.08;100.00
8318;BME280;4196;48.926;8.964;2023-12-28T01:19:32;99159.22;;;-0.15;100.00
8318;BME280;4196;48.926;8.964;2023-12-28T01:22:18;99152.00;;;-0.06;100.00
8318;BME280;4196;48.926;8.964;2023-12-28T01:25:05;99148.31;;;-0.13;100.00
8318;BME280;4196;48.926;8.964;2023-12-28T01:27:51;99158.81;;;-0.05;100.00
8318;BME280;4196;48.926;8.964;2023-12-28T01:30:38;99170.25;;;0.05;100.00
8318;BME280;4196;48.926;8.964;2023-12-28T01:33:24;99158.94;;;-0.02;100.00
8318;BME280;4196;48.926;8.964;2023-12-28T01:36:18;99196.44;;;0.02;100.00
8318;BME280;4196;48.926;8.964;2023-12-28T01:39:05;99199.41;;;-0.08;100.00
8318;BME280;4196;48.926;8.964;2023-12-28T01:41:51;99200.75;;;-0.16;100.00
8318;BME280;4196;48.926;8.964;2023-12-28T01:44:38;99185.31;;;-0.21;100.00
8318;BME280;4196;48.926;8.964;2023-12-28T01:47:25;99214.03;;;-0.23;100.00
8318;BME280;4196;48.926;8.964;2023-12-28T01:50:12;99173.91;;;-0.50;100.00
8318;BME280;4196;48.926;8.964;2023-12-28T01:53:00;99209.09;;;-0.40;100.00
8318;BME280;4196;48.926;8.964;2023-12-28T01:55:48;99193.28;;;-0.52;100.00
8318;BME280;4196;48.926;8.964;2023-12-28T01:58:35;99181.94;;;-0.60;100.00
8318;BME280;4196;48.926;8.964;2023-12-28T02:01:23;99196.22;;;-0.23;100.00
8318;BME280;4196;48.926;8.964;2023-12-28T02:04:13;99177.81;;;-0.37;100.00
8318;BME280;4196;48.926;8.964;2023-12-28T02:07:00;99212.03;;;-0.31;100.00
8318;BME280;4196;48.926;8.964;2023-12-28T02:09:46;99218.75;;;-0.33;100.00
8318;BME280;4196;48.926;8.964;2023-12-28T02:12:33;99205.41;;;-0.46;100.00
8318;BME280;4196;48.926;8.964;2023-12-28T02:15:20;99163.44;;;-0.56;100.00
8318;BME280;4196;48.926;8.964;2023-12-28T02:18:19;99177.56;;;-0.63;100.00
8318;BME280;4196;48.926;8.964;2023-12-28T02:21:08;99217.59;;;-0.39;100.00
8318;BME280;4196;48.926;8.964;2023-12-28T02:23:54;99208.28;;;-0.39;100.00
8318;BME280;4196;48.926;8.964;2023-12-28T02:26:40;99173.81;;;-0.32;100.00
8318;BME280;4196;48.926;8.964;2023-12-28T02:29:28;99194.22;;;-0.31;100.00
8318;BME280;4196;48.926;8.964;2023-12-28T02:32:15;99199.84;;;-0.38;100.00
8318;BME280;4196;48.926;8.964;2023-12-28T02:35:13;99188.06;;;-0.36;100.00
8318;BME280;4196;48.926;8.964;2023-12-28T02:38:05;99181.38;;;-0.34;100.00
8318;BME280;4196;48.926;8.964;2023-12-28T02:40:52;99174.34;;;-0.39;100.00
8318;BME280;4196;48.926;8.964;2023-12-28T02:43:40;99220.44;;;-0.12;100.00
8318;BME280;4196;48.926;8.964;2023-12-28T02:46:26;99168.09;;;-0.47;100.00
8318;BME280;4196;48.926;8.964;2023-12-28T02:49:12;99179.25;;;-0.44;100.00
8318;BME280;4196;48.926;8.964;2023-12-28T02:51:59;99182.22;;;-0.33;100.00
8318;BME280;4196;48.926;8.964;2023-12-28T02:54:45;99210.53;;;-0.06;100.00
8318;BME280;4196;48.926;8.964;2023-12-28T02:57:32;99190.84;;;-0.10;100.00
8318;BME280;4196;48.926;8.964;2023-12-28T03:00:19;99176.28;;;-0.34;100.00
8318;BME280;4196;48.926;8.964;2023-12-28T03:03:05;99169.59;;;-0.32;100.00
8318;BME280;4196;48.926;8.964;2023-12-28T03:05:52;99164.75;;;-0.05;100.00
8318;BME280;4196;48.926;8.964;2023-12-28T03:08:38;99193.94;;;0.04;100.00
8318;BME280;4196;48.926;8.964;2023-12-28T03:11:25;99184.66;;;0.04;100.00
8318;BME280;4196;48.926;8.964;2023-12-28T03:14:13;99199.56;;;0.16;100.00
8318;BME280;4196;48.926;8.964;2023-12-28T03:17:00;99192.97;;;0.21;100.00
8318;BME280;4196;48.926;8.964;2023-12-28T03:19:48;99191.59;;;0.29;100.00
8318;BME280;4196;48.926;8.964;2023-12-28T03:22:36;99197.91;;;0.39;100.00
8318;BME280;4196;48.926;8.964;2023-12-28T03:25:22;99181.13;;;0.44;100.00
8318;BME280;4196;48.926;8.964;2023-12-28T03:28:09;99169.47;;;0.49;100.00
8318;BME280;4196;48.926;8.964;2023-12-28T03:30:55;99168.38;;;0.65;100.00
8318;BME280;4196;48.926;8.964;2023-12-28T03:33:42;99198.22;;;0.90;100.00
8318;BME280;4196;48.926;8.964;2023-12-28T03:36:29;99191.13;;;1.05;100.00
8318;BME280;4196;48.926;8.964;2023-12-28T03:39:15;99161.34;;;1.04;100.00
8318;BME280;4196;48.926;8.964;2023-12-28T03:42:02;99157.16;;;1.06;100.00
8318;BME280;4196;48.926;8.964;2023-12-28T03:44:48;99165.00;;;1.11;100.00
8318;BME280;4196;48.926;8.964;2023-12-28T03:47:34;99196.66;;;1.17;100.00
8318;BME280;4196;48.926;8.964;2023-12-28T03:50:21;99155.59;;;1.10;100.00
8318;BME280;4196;48.926;8.964;2023-12-28T03:53:07;99172.22;;;1.23;100.00
8318;BME280;4196;48.926;8.964;2023-12-28T03:55:54;99145.00;;;1.22;100.00
8318;BME280;4196;48.926;8.964;2023-12-28T03:58:40;99146.38;;;1.13;100.00
8318;BME280;4196;48.926;8.964;2023-12-28T04:01:27;99153.44;;;1.20;100.00
8318;BME280;4196;48.926;8.964;2023-12-28T04:04:13;99135.31;;;1.13;100.00
8318;BME280;4196;48.926;8.964;2023-12-28T04:06:59;99154.84;;;1.12;100.00
8318;BME280;4196;48.926;8.964;2023-12-28T04:09:46;99200.66;;;1.57;100.00
8318;BME280;4196;48.926;8.964;2023-12-28T04:12:33;99163.69;;;1.46;100.00
8318;BME280;4196;48.926;8.964;2023-12-28T04:15:20;99173.06;;;1.47;100.00
8318;BME280;4196;48.926;8.964;2023-12-28T04:18:06;99191.69;;;1.68;100.00
8318;BME280;4196;48.926;8.964;2023-12-28T04:20:53;99182.38;;;1.94;100.00
8318;BME280;4196;48.926;8.964;2023-12-28T04:23:40;99195.38;;;2.02;100.00
8318;BME280;4196;48.926;8.964;2023-12-28T04:26:28;99176.72;;;2.03;100.00
8318;BME280;4196;48.926;8.964;2023-12-28T04:29:14;99161.19;;;2.24;100.00
8318;BME280;4196;48.926;8.964;2023-12-28T04:32:00;99150.34;;;2.04;100.00
8318;BME280;4196;48.926;8.964;2023-12-28T04:34:47;99184.88;;;2.18;100.00
8318;BME280;4196;48.926;8.964;2023-12-28T04:37:34;99172.59;;;2.07;100.00
8318;BME280;4196;48.926;8.964;2023-12-28T04:40:21;99169.69;;;1.96;100.00
8318;BME280;4196;48.926;8.964;2023-12-28T04:43:07;99161.53;;;2.08;100.00
8318;BME280;4196;48.926;8.964;2023-12-28T04:45:53;99135.69;;;1.99;100.00
8318;BME280;4196;48.926;8.964;2023-12-28T04:48:40;99151.47;;;2.12;100.00
8318;BME280;4196;48.926;8.964;2023-12-28T04:51:27;99146.44;;;2.14;100.00
8318;BME280;4196;48.926;8.964;2023-12-28T04:54:13;99155.94;;;1.92;100.00
8318;BME280;4196;48.926;8.964;2023-12-28T04:57:00;99156.75;;;1.91;100.00
8318;BME280;4196;48.926;8.964;2023-12-28T04:59:46;99172.09;;;1.91;100.00
8318;BME280;4196;48.926;8.964;2023-12-28T05:02:33;99169.78;;;1.99;100.00
8318;BME280;4196;48.926;8.964;2023-12-28T05:05:20;99167.47;;;2.07;100.00
8318;BME280;4196;48.926;8.964;2023-12-28T05:08:07;99180.13;;;2.56;100.00
8318;BME280;4196;48.926;8.964;2023-12-28T05:10:53;99152.69;;;2.51;100.00
8318;BME280;4196;48.926;8.964;2023-12-28T05:13:40;99148.50;;;2.81;100.00
8318;BME280;4196;48.926;8.964;2023-12-28T05:16:27;99149.94;;;3.63;100.00
8318;BME280;4196;48.926;8.964;2023-12-28T05:19:13;99159.41;;;4.72;100.00
8318;BME280;4196;48.926;8.964;2023-12-28T05:22:00;99115.31;;;5.32;100.00
8318;BME280;4196;48.926;8.964;2023-12-28T05:24:50;99148.69;;;6.26;99.14
8318;BME280;4196;48.926;8.964;2023-12-28T05:27:36;99189.84;;;6.82;95.15
8318;BME280;4196;48.926;8.964;2023-12-28T05:30:23;99157.69;;;7.15;93.28
8318;BME280;4196;48.926;8.964;2023-12-28T05:33:09;99202.25;;;7.81;91.62
8318;BME280;4196;48.926;8.964;2023-12-28T05:35:56;99155.09;;;7.92;89.21
8318;BME280;4196;48.926;8.964;2023-12-28T05:38:43;99202.63;;;8.17;88.92
8318;BME280;4196;48.926;8.964;2023-12-28T05:41:29;99208.09;;;8.53;86.85
8318;BME280;4196;48.926;8.964;2023-12-28T05:44:16;99200.50;;;8.71;85.08
8318;BME280;4196;48.926;8.964;2023-12-28T05:47:03;99154.00;;;8.68;83.73
8318;BME280;4196;48.926;8.964;2023-12-28T05:49:50;99171.31;;;8.81;84.25
8318;BME280;4196;48.926;8.964;2023-12-28T05:52:38;99192.09;;;9.09;84.70
8318;BME280;4196;48.926;8.964;2023-12-28T05:55:25;99199.94;;;9.24;85.88
8318;BME280;4196;48.926;8.964;2023-12-28T05:58:11;99177.56;;;9.31;86.75
8318;BME280;4196;48.926;8.964;2023-12-28T06:00:57;99215.66;;;9.78;87.16
8318;BME280;4196;48.926;8.964;2023-12-28T06:03:44;99215.66;;;9.78;86.52
8318;BME280;4196;48.926;8.964;2023-12-28T06:06:31;99168.25;;;9.65;86.13
8318;BME280;4196;48.926;8.964;2023-12-28T06:09:18;99207.94;;;9.98;85.31
8318;BME280;4196;48.926;8.964;2023-12-28T06:12:05;99228.69;;;10.22;83.98
8318;BME280;4196;48.926;8.964;2023-12-28T06:14:51;99206.25;;;10.06;83.48
8318;BME280;4196;48.926;8.964;2023-12-28T06:17:38;99227.84;;;10.17;84.13
8318;BME280;4196;48.926;8.964;2023-12-28T06:20:25;99218.34;;;10.10;84.45
8318;BME280;4196;48.926;8.964;2023-12-28T06:23:11;99220.94;;;10.18;83.57
8318;BME280;4196;48.926;8.964;2023-12-28T06:25:58;99187.22;;;9.82;84.39
8318;BME280;4196;48.926;8.964;2023-12-28T06:28:44;99197.59;;;9.98;83.54
8318;BME280;4196;48.926;8.964;2023-12-28T06:31:31;99229.56;;;10.09;83.62
8318;BME280;4196;48.926;8.964;2023-12-28T06:34:20;99207.13;;;10.11;82.55
8318;BME280;4196;48.926;8.964;2023-12-28T06:37:06;99211.44;;;10.03;82.69
8318;BME280;4196;48.926;8.964;2023-12-28T06:39:53;99182.97;;;10.07;81.78
8318;BME280;4196;48.926;8.964;2023-12-28T06:42:39;99211.44;;;10.12;82.04
8318;BME280;4196;48.926;8.964;2023-12-28T06:45:27;99225.25;;;10.20;81.61
8318;BME280;4196;48.926;8.964;2023-12-28T06:48:14;99242.53;;;10.30;80.47
8318;BME280;4196;48.926;8.964;2023-12-28T06:51:01;99241.69;;;10.30;80.85
8318;BME280;4196;48.926;8.964;2023-12-28T06:53:48;99256.41;;;10.54;80.78
8318;BME280;4196;48.926;8.964;2023-12-28T06:56:35;99262.41;;;10.48;81.26
8318;BME280;4196;48.926;8.964;2023-12-28T06:59:22;99261.53;;;10.42;82.29
8318;BME280;4196;48.926;8.964;2023-12-28T07:02:08;99277.97;;;10.47;83.42
8318;BME280;4196;48.926;8.964;2023-12-28T07:04:55;99235.66;;;10.32;85.00
8318;BME280;4196;48.926;8.964;2023-12-28T07:07:41;99288.31;;;10.62;85.62
8318;BME280;4196;48.926;8.964;2023-12-28T07:10:28;99264.13;;;10.40;86.54
8318;BME280;4196;48.926;8.964;2023-12-28T07:13:14;99258.94;;;10.29;87.86
8318;BME280;4196;48.926;8.964;2023-12-28T07:16:01;99267.56;;;10.28;89.19
8318;BME280;4196;48.926;8.964;2023-12-28T07:18:48;99200.22;;;9.99;89.83
8318;BME280;4196;48.926;8.964;2023-12-28T07:21:36;99220.91;;;9.99;90.42
8318;BME280;4196;48.926;8.964;2023-12-28T07:24:23;99244.19;;;10.01;90.57
8318;BME280;4196;48.926;8.964;2023-12-28T07:27:09;99274.47;;;10.29;90.29
8318;BME280;4196;48.926;8.964;2023-12-28T07:29:56;99201.00;;;9.75;90.85
8318;BME280;4196;48.926;8.964;2023-12-28T07:32:59;99263.16;;;10.00;91.30
8318;BME280;4196;48.926;8.964;2023-12-28T07:35:46;99278.69;;;10.03;92.20
8318;BME280;4196;48.926;8.964;2023-12-28T07:38:32;99306.25;;;10.01;94.60
8318;BME280;4196;48.926;8.964;2023-12-28T07:41:20;99270.91;;;9.90;94.70
8318;BME280;4196;48.926;8.964;2023-12-28T07:44:06;99282.06;;;9.80;96.38
8318;BME280;4196;48.926;8.964;2023-12-28T07:46:53;99249.97;;;9.35;98.05
8318;BME280;4196;48.926;8.964;2023-12-28T07:49:39;99294.84;;;9.53;99.44
8318;BME280;4196;48.926;8.964;2023-12-28T07:52:26;99297.34;;;9.37;100.00
8318;BME280;4196;48.926;8.964;2023-12-28T07:55:13;99314.56;;;9.37;100.00
8318;BME280;4196;48.926;8.964;2023-12-28T07:58:00;99314.56;;;9.32;100.00
8318;BME280;4196;48.926;8.964;2023-12-28T08:00:47;99312.69;;;9.13;100.00
8318;BME280;4196;48.926;8.964;2023-12-28T08:03:34;99329.94;;;9.20;100.00
8318;BME280;4196;48.926;8.964;2023-12-28T08:06:20;99310.88;;;9.00;100.00
8318;BME280;4196;48.926;8.964;2023-12-28T08:09:07;99307.50;;;9.13;100.00
8318;BME280;4196;48.926;8.964;2023-12-28T08:11:55;99285.06;;;9.03;100.00
8318;BME280;4196;48.926;8.964;2023-12-28T08:14:41;99309.16;;;9.00;100.00
8318;BME280;4196;48.926;8.964;2023-12-28T08:17:28;99340.28;;;9.17;100.00
8318;BME280;4196;48.926;8.964;2023-12-28T08:20:14;99292.72;;;8.87;100.00
8318;BME280;4196;48.926;8.964;2023-12-28T08:23:01;99305.56;;;8.81;100.00
8318;BME280;4196;48.926;8.964;2023-12-28T08:26:02;99314.22;;;8.88;100.00
8318;BME280;4196;48.926;8.964;2023-12-28T08:28:49;99299.56;;;8.84;100.00
8318;BME280;4196;48.926;8.964;2023-12-28T08:31:35;99300.47;;;8.90;100.00
8318;BME280;4196;48.926;8.964;2023-12-28T08:34:21;99323.84;;;9.07;100.00
8318;BME280;4196;48.926;8.964;2023-12-28T08:37:08;99329.00;;;9.09;100.00
8318;BME280;4196;48.926;8.964;2023-12-28T08:39:54;99293.50;;;8.83;100.00
8318;BME280;4196;48.926;8.964;2023-12-28T08:42:41;99340.16;;;9.02;100.00
8318;BME280;4196;48.926;8.964;2023-12-28T08:45:27;99345.16;;;8.80;100.00
8318;BME280;4196;48.926;8.964;2023-12-28T08:48:14;99313.13;;;8.60;100.00
8318;BME280;4196;48.926;8.964;2023-12-28T08:51:01;99321.00;;;8.75;100.00
8318;BME280;4196;48.926;8.964;2023-12-28T08:53:47;99340.88;;;8.85;100.00
8318;BME280;4196;48.926;8.964;2023-12-28T08:56:34;99339.19;;;8.87;100.00
8318;BME280;4196;48.926;8.964;2023-12-28T08:59:20;99296.66;;;8.49;100.00
8318;BME280;4196;48.926;8.964;2023-12-28T09:02:07;99326.13;;;8.70;100.00
8318;BME280;4196;48.926;8.964;2023-12-28T09:04:54;99301.03;;;8.57;100.00
8318;BME280;4196;48.926;8.964;2023-12-28T09:07:40;99304.41;;;8.47;100.00
8318;BME280;4196;48.926;8.964;2023-12-28T09:10:30;99285.50;;;8.54;100.00
8318;BME280;4196;48.926;8.964;2023-12-28T09:13:16;99301.00;;;8.54;100.00
8318;BME280;4196;48.926;8.964;2023-12-28T09:16:03;99289.78;;;8.48;100.00
8318;BME280;4196;48.926;8.964;2023-12-28T09:18:52;99275.19;;;8.54;100.00
8318;BME280;4196;48.926;8.964;2023-12-28T09:21:39;99252.59;;;8.29;100.00
8318;BME280;4196;48.926;8.964;2023-12-28T09:24:25;99324.56;;;8.89;100.00
8318;BME280;4196;48.926;8.964;2023-12-28T09:27:12;99313.22;;;8.72;100.00
8318;BME280;4196;48.926;8.964;2023-12-28T09:29:58;99301.97;;;8.64;100.00
8318;BME280;4196;48.926;8.964;2023-12-28T09:32:45;99308.84;;;8.65;100.00
8318;BME280;4196;48.926;8.964;2023-12-28T09:35:31;99364.28;;;9.04;100.00
8318;BME280;4196;48.926;8.964;2023-12-28T09:38:18;99331.34;;;8.78;100.00
8318;BME280;4196;48.926;8.964;2023-12-28T09:41:14;99338.16;;;8.71;100.00
8318;BME280;4196;48.926;8.964;2023-12-28T09:44:12;99343.38;;;8.73;100.00
8318;BME280;4196;48.926;8.964;2023-12-28T09:46:58;99341.63;;;8.72;100.00
8318;BME280;4196;48.926;8.964;2023-12-28T09:49:46;99335.59;;;8.70;100.00
8318;BME280;4196;48.926;8.964;2023-12-28T09:52:33;99339.75;;;8.56;100.00
8318;BME280;4196;48.926;8.964;2023-12-28T09:55:20;99382.19;;;8.85;100.00
8318;BME280;4196;48.926;8.964;2023-12-28T09:58:06;99362.34;;;8.78;100.00
8318;BME280;4196;48.926;8.964;2023-12-28T10:00:55;99354.47;;;8.66;100.00
8318;BME280;4196;48.926;8.964;2023-12-28T10:03:43;99337.09;;;8.50;100.00
8318;BME280;4196;48.926;8.964;2023-12-28T10:06:29;99346.59;;;8.51;100.00
8318;BME280;4196;48.926;8.964;2023-12-28T10:09:16;99345.78;;;8.56;100.00
8318;BME280;4196;48.926;8.964;2023-12-28T10:12:02;99349.22;;;8.57;100.00
8318;BME280;4196;48.926;8.964;2023-12-28T10:14:50;99340.59;;;8.58;100.00
8318;BME280;4196;48.926;8.964;2023-12-28T10:17:37;99345.03;;;8.68;100.00
8318;BME280;4196;48.926;8.964;2023-12-28T10:20:27;99348.53;;;8.73;100.00
8318;BME280;4196;48.926;8.964;2023-12-28T10:23:14;99347.66;;;8.76;100.00
8318;BME280;4196;48.926;8.964;2023-12-28T10:26:00;99319.31;;;8.77;100.00
8318;BME280;4196;48.926;8.964;2023-12-28T10:28:48;99354.91;;;9.13;100.00
8318;BME280;4196;48.926;8.964;2023-12-28T10:31:34;99329.88;;;9.08;100.00
8318;BME280;4196;48.926;8.964;2023-12-28T10:34:22;99335.19;;;9.26;100.00
8318;BME280;4196;48.926;8.964;2023-12-28T10:37:09;99306.81;;;9.37;100.00
8318;BME280;4196;48.926;8.964;2023-12-28T10:39:59;99320.69;;;9.51;100.00
8318;BME280;4196;48.926;8.964;2023-12-28T10:42:57;99339.75;;;9.65;100.00
8318;BME280;4196;48.926;8.964;2023-12-28T10:45:46;99345.91;;;9.93;100.00
8318;BME280;4196;48.926;8.964;2023-12-28T10:48:36;99339.00;;;9.91;100.00
8318;BME280;4196;48.926;8.964;2023-12-28T10:51:25;99330.44;;;10.03;100.00
8318;BME280;4196;48.926;8.964;2023-12-28T10:57:29;99330.47;;;10.09;100.00
8318;BME280;4196;48.926;8.964;2023-12-28T11:00:22;99263.00;;;9.63;100.00
8318;BME280;4196;48.926;8.964;2023-12-28T11:03:11;99295.78;;;9.65;100.00
8318;BME280;4196;48.926;8.964;2023-12-28T11:06:02;99273.34;;;9.60;100.00
8318;BME280;4196;48.926;8.964;2023-12-28T11:08:51;99313.16;;;9.96;100.00
8318;BME280;4196;48.926;8.964;2023-12-28T11:11:40;99274.19;;;9.54;100.00
8318;BME280;4196;48.926;8.964;2023-12-28T11:14:27;99329.44;;;9.75;100.00
8318;BME280;4196;48.926;8.964;2023-12-28T11:17:15;99318.19;;;9.68;100.00
8318;BME280;4196;48.926;8.964;2023-12-28T11:20:02;99294.00;;;9.57;100.00
8318;BME280;4196;48.926;8.964;2023-12-28T11:22:51;99298.31;;;9.61;100.00
8318;BME280;4196;48.926;8.964;2023-12-28T11:25:38;99300.16;;;9.77;100.00
8318;BME280;4196;48.926;8.964;2023-12-28T11:28:24;99273.41;;;9.78;100.00
8318;BME280;4196;48.926;8.964;2023-12-28T11:31:13;99258.72;;;9.68;100.00
8318;BME280;4196;48.926;8.964;2023-12-28T11:34:03;99301.97;;;10.04;100.00
8318;BME280;4196;48.926;8.964;2023-12-28T11:36:51;99308.97;;;10.28;100.00
8318;BME280;4196;48.926;8.964;2023-12-28T11:39:41;99306.38;;;10.25;100.00
8318;BME280;4196;48.926;8.964;2023-12-28T11:42:31;99301.13;;;10.16;100.00
8318;BME280;4196;48.926;8.964;2023-12-28T11:45:19;99163.84;;;9.44;100.00
8318;BME280;4196;48.926;8.964;2023-12-28T11:48:06;99178.50;;;9.50;100.00
8318;BME280;4196;48.926;8.964;2023-12-28T11:50:56;99158.63;;;9.35;100.00
8318;BME280;4196;48.926;8.964;2023-12-28T11:53:44;99245.84;;;9.86;100.00
8318;BME280;4196;48.926;8.964;2023-12-28T11:56:32;99226.03;;;9.82;100.00
8318;BME280;4196;48.926;8.964;2023-12-28T11:59:21;99227.78;;;9.91;100.00
8318;BME280;4196;48.926;8.964;2023-12-28T12:02:08;99213.13;;;9.91;100.00
8318;BME280;4196;48.926;8.964;2023-12-28T12:04:54;99099.22;;;9.42;100.00
8318;BME280;4196;48.926;8.964;2023-12-28T12:07:43;99281.41;;;10.59;100.00
8318;BME280;4196;48.926;8.964;2023-12-28T12:10:30;99122.63;;;9.95;100.00
8318;BME280;4196;48.926;8.964;2023-12-28T12:13:18;99145.84;;;9.76;100.00
8318;BME280;4196;48.926;8.964;2023-12-28T12:16:05;99196.78;;;10.06;100.00
8318;BME280;4196;48.926;8.964;2023-12-28T12:18:53;99217.47;;;10.23;100.00
8318;BME280;4196;48.926;8.964;2023-12-28T12:21:43;99285.72;;;10.59;100.00
8318;BME280;4196;48.926;8.964;2023-12-28T12:24:31;99150.16;;;9.73;100.00
8318;BME280;4196;48.926;8.964;2023-12-28T12:27:18;99142.41;;;9.80;100.00
8318;BME280;4196;48.926;8.964;2023-12-28T12:30:05;99254.66;;;10.59;100.00
8318;BME280;4196;48.926;8.964;2023-12-28T12:32:51;99202.81;;;10.07;100.00
8318;BME280;4196;48.926;8.964;2023-12-28T12:35:38;99195.03;;;10.11;100.00
8318;BME280;4196;48.926;8.964;2023-12-28T12:38:25;99224.44;;;10.30;100.00
8318;BME280;4196;48.926;8.964;2023-12-28T12:41:13;99211.44;;;10.15;100.00
8318;BME280;4196;48.926;8.964;2023-12-28T12:43:59;99183.84;;;9.99;100.00
8318;BME280;4196;48.926;8.964;2023-12-28T12:46:47;99157.03;;;9.63;100.00
8318;BME280;4196;48.926;8.964;2023-12-28T12:49:33;99076.69;;;8.92;100.00
8318;BME280;4196;48.926;8.964;2023-12-28T12:52:20;99175.03;;;9.41;100.00
8318;BME280;4196;48.926;8.964;2023-12-28T12:55:12;99268.31;;;10.01;100.00
8318;BME280;4196;48.926;8.964;2023-12-28T12:57:59;99272.63;;;9.99;100.00
8318;BME280;4196;48.926;8.964;2023-12-28T13:00:46;99227.72;;;9.71;100.00
8318;BME280;4196;48.926;8.964;2023-12-28T13:03:33;99266.59;;;9.97;100.00
8318;BME280;4196;48.926;8.964;2023-12-28T13:06:19;99157.69;;;9.16;100.00
8318;BME280;4196;48.926;8.964;2023-12-28T13:09:09;99238.06;;;9.74;100.00
8318;BME280;4196;48.926;8.964;2023-12-28T13:11:57;99182.72;;;9.28;100.00
8318;BME280;4196;48.926;8.964;2023-12-28T13:14:43;99200.06;;;9.49;100.00
8318;BME280;4196;48.926;8.964;2023-12-28T13:17:30;99266.59;;;10.05;100.00
8318;BME280;4196;48.926;8.964;2023-12-28T13:20:17;99219.09;;;9.71;100.00
8318;BME280;4196;48.926;8.964;2023-12-28T13:23:04;99196.69;;;9.65;100.00
8318;BME280;4196;48.926;8.964;2023-12-28T13:25:53;99157.69;;;9.16;100.00
8318;BME280;4196;48.926;8.964;2023-12-28T13:28:39;99150.81;;;9.15;100.00
8318;BME280;4196;48.926;8.964;2023-12-28T13:31:26;99154.31;;;9.26;100.00
8318;BME280;4196;48.926;8.964;2023-12-28T13:34:12;99197.53;;;9.62;100.00
8318;BME280;4196;48.926;8.964;2023-12-28T13:36:59;99210.50;;;9.78;100.00
8318;BME280;4196;48.926;8.964;2023-12-28T13:39:47;99144.91;;;9.40;100.00
8318;BME280;4196;48.926;8.964;2023-12-28T13:42:34;99277.00;;;10.09;100.00
8318;BME280;4196;48.926;8.964;2023-12-28T13:45:20;99211.31;;;9.66;100.00
8318;BME280;4196;48.926;8.964;2023-12-28T13:48:07;99186.28;;;9.51;100.00
8318;BME280;4196;48.926;8.964;2023-12-28T13:50:55;99110.25;;;8.94;100.00
8318;BME280;4196;48.926;8.964;2023-12-28T13:53:42;99262.28;;;9.96;100.00
8318;BME280;4196;48.926;8.964;2023-12-28T13:56:28;99216.50;;;9.75;100.00
8318;BME280;4196;48.926;8.964;2023-12-28T13:59:15;99178.44;;;9.34;100.00
8318;BME280;4196;48.926;8.964;2023-12-28T14:02:01;99156.88;;;9.23;100.00
8318;BME280;4196;48.926;8.964;2023-12-28T14:04:48;99174.16;;;9.33;100.00
8318;BME280;4196;48.926;8.964;2023-12-28T14:07:34;99200.00;;;9.33;100.00
8318;BME280;4196;48.926;8.964;2023-12-28T14:10:21;99260.50;;;9.81;100.00
8318;BME280;4196;48.926;8.964;2023-12-28T14:13:08;99119.75;;;8.97;100.00
8318;BME280;4196;48.926;8.964;2023-12-28T14:15:54;99236.31;;;9.67;100.00
8318;BME280;4196;48.926;8.964;2023-12-28T14:18:40;99146.44;;;9.02;100.00
8318;BME280;4196;48.926;8.964;2023-12-28T14:21:29;99209.44;;;9.31;100.00
8318;BME280;4196;48.926;8.964;2023-12-28T14:24:20;99215.56;;;9.49;100.00
8318;BME280;4196;48.926;8.964;2023-12-28T14:27:07;99096.38;;;8.72;100.00
8318;BME280;4196;48.926;8.964;2023-12-28T14:29:54;99216.41;;;9.43;100.00
8318;BME280;4196;48.926;8.964;2023-12-28T14:32:44;99135.22;;;8.93;100.00
8318;BME280;4196;48.926;8.964;2023-12-28T14:35:31;99240.59;;;9.60;100.00
8318;BME280;4196;48.926;8.964;2023-12-28T14:38:18;99252.66;;;9.60;100.00
8318;BME280;4196;48.926;8.964;2023-12-28T14:41:04;99108.53;;;8.88;100.00
8318;BME280;4196;48.926;8.964;2023-12-28T14:43:51;99100.72;;;8.79;100.00
8318;BME280;4196;48.926;8.964;2023-12-28T14:46:37;99181.06;;;9.36;100.00
8318;BME280;4196;48.926;8.964;2023-12-28T14:49:24;99243.19;;;9.62;100.00
8318;BME280;4196;48.926;8.964;2023-12-28T14:52:10;99232.84;;;9.54;100.00
8318;BME280;4196;48.926;8.964;2023-12-28T14:54:57;99230.22;;;9.47;100.00
8318;BME280;4196;48.926;8.964;2023-12-28T14:57:44;99076.50;;;8.56;100.00
8318;BME280;4196;48.926;8.964;2023-12-28T15:00:31;99061.69;;;8.30;100.00
8318;BME280;4196;48.926;8.964;2023-12-28T15:03:17;99213.81;;;9.35;100.00
8318;BME280;4196;48.926;8.964;2023-12-28T15:06:04;99058.19;;;8.19;100.00
8318;BME280;4196;48.926;8.964;2023-12-28T15:08:51;99105.72;;;8.49;100.00
8318;BME280;4196;48.926;8.964;2023-12-28T15:11:37;99108.19;;;8.36;100.00